createdAt,value
2024-01-28T00:01:47.655Z,2.36
2024-01-28T00:04:15.891Z,2.37
2024-01-28T00:06:44.144Z,2.36
2024-01-28T00:09:12.294Z,2.37
2024-01-28T00:11:41.232Z,2.37
2024-01-28T00:14:09.199Z,2.37
2024-01-28T00:16:37.363Z,2.39
2024-01-28T00:19:07.398Z,2.39
2024-01-28T00:21:35.802Z,2.39
2024-01-28T00:24:05.828Z,2.39
2024-01-28T00:26:42.988Z,2.40
2024-01-28T00:29:10.816Z,2.40
2024-01-28T00:31:38.943Z,2.41
2024-01-28T00:34:06.995Z,2.41
2024-01-28T00:36:34.996Z,2.38
2024-01-28T00:39:03.824Z,2.38
2024-01-28T00:41:32.743Z,2.40
2024-01-28T00:44:02.637Z,2.40
2024-01-28T00:46:30.802Z,2.41
2024-01-28T00:48:59.173Z,2.42
2024-01-28T00:51:27.308Z,2.42
2024-01-28T00:53:55.247Z,2.43
2024-01-28T00:56:23.530Z,2.41
2024-01-28T00:58:51.698Z,2.42
2024-01-28T01:01:20.578Z,2.43
2024-01-28T01:03:49.041Z,2.45
2024-01-28T01:06:17.324Z,2.45
2024-01-28T01:08:45.263Z,2.46
2024-01-28T01:11:13.315Z,2.48
2024-01-28T01:13:41.562Z,2.50
2024-01-28T01:16:09.448Z,2.52
2024-01-28T01:18:38.253Z,2.56
2024-01-28T01:21:06.379Z,2.59
2024-01-28T01:23:34.533Z,2.60
2024-01-28T01:26:02.819Z,2.63
2024-01-28T01:28:34.131Z,2.66
2024-01-28T01:31:05.615Z,2.69
2024-01-28T01:33:33.823Z,2.71
2024-01-28T01:36:03.059Z,2.72
2024-01-28T01:38:31.804Z,2.74
2024-01-28T01:41:00.047Z,2.74
2024-01-28T01:43:28.636Z,2.73
2024-01-28T01:45:56.703Z,2.74
2024-01-28T01:48:24.713Z,2.75
2024-01-28T01:50:53.236Z,2.75
2024-01-28T01:53:21.299Z,2.74
2024-01-28T01:55:50.020Z,2.73
2024-01-28T01:58:18.422Z,2.70
2024-01-28T02:00:47.258Z,2.68
2024-01-28T02:03:15.388Z,2.69
2024-01-28T02:05:44.045Z,2.68
2024-01-28T02:08:12.270Z,2.69
2024-01-28T02:10:40.136Z,2.64
2024-01-28T02:13:08.387Z,2.59
2024-01-28T02:15:37.806Z,2.57
2024-01-28T02:18:06.938Z,2.56
2024-01-28T02:20:35.156Z,2.56
2024-01-28T02:23:04.707Z,2.51
2024-01-28T02:25:34.275Z,2.49
2024-01-28T02:28:02.627Z,2.52
2024-01-28T02:30:30.726Z,2.49
2024-01-28T02:32:58.749Z,2.44
2024-01-28T02:35:26.782Z,2.39
2024-01-28T02:37:54.855Z,2.37
2024-01-28T02:40:22.992Z,2.37
2024-01-28T02:42:50.962Z,2.32
2024-01-28T02:45:19.479Z,2.32
2024-01-28T02:47:47.514Z,2.31
2024-01-28T02:50:15.694Z,2.34
2024-01-28T02:52:43.567Z,2.32
2024-01-28T02:55:12.344Z,2.32
2024-01-28T02:57:40.335Z,2.27
2024-01-28T03:00:08.886Z,2.27
2024-01-28T03:02:37.907Z,2.28
2024-01-28T03:05:06.215Z,2.28
2024-01-28T03:07:34.378Z,2.30
2024-01-28T03:10:02.507Z,2.31
2024-01-28T03:12:30.773Z,2.32
2024-01-28T03:14:59.202Z,2.33
2024-01-28T03:17:27.342Z,2.35
2024-01-28T03:19:55.395Z,2.35
2024-01-28T03:22:23.628Z,2.36
2024-01-28T03:24:52.945Z,2.37
2024-01-28T03:27:21.182Z,2.38
2024-01-28T03:29:49.705Z,2.39
2024-01-28T03:32:17.497Z,2.39
2024-01-28T03:34:45.569Z,2.42
2024-01-28T03:37:13.665Z,2.43
2024-01-28T03:39:41.776Z,2.42
2024-01-28T03:42:12.811Z,2.41
2024-01-28T03:44:40.949Z,2.38
2024-01-28T03:47:09.126Z,2.35
2024-01-28T03:49:37.113Z,2.34
2024-01-28T03:52:05.408Z,2.34
2024-01-28T03:54:33.503Z,2.30
2024-01-28T03:57:01.930Z,2.28
2024-01-28T03:59:29.916Z,2.27
2024-01-28T04:01:58.118Z,2.27
2024-01-28T04:04:26.339Z,2.26
2024-01-28T04:06:54.801Z,2.29
2024-01-28T04:09:23.050Z,2.30
2024-01-28T04:11:51.045Z,2.29
2024-01-28T04:14:19.168Z,2.30
2024-01-28T04:16:47.047Z,2.30
2024-01-28T04:19:14.976Z,2.30
2024-01-28T04:21:43.472Z,2.32
2024-01-28T04:24:11.803Z,2.31
2024-01-28T04:26:39.818Z,2.31
2024-01-28T04:29:07.630Z,2.30
2024-01-28T04:31:36.061Z,2.27
2024-01-28T04:34:04.250Z,2.25
2024-01-28T04:36:32.558Z,2.23
2024-01-28T04:39:00.676Z,2.23
2024-01-28T04:41:28.788Z,2.21
2024-01-28T04:43:56.612Z,2.21
2024-01-28T04:46:25.432Z,2.17
2024-01-28T04:48:53.853Z,2.19
2024-01-28T04:51:22.405Z,2.19
2024-01-28T04:53:50.448Z,2.19
2024-01-28T04:56:18.654Z,2.19
2024-01-28T04:58:46.702Z,2.20
2024-01-28T05:01:14.847Z,2.21
2024-01-28T05:03:42.998Z,2.21
2024-01-28T05:06:11.390Z,2.23
2024-01-28T05:08:39.704Z,2.24
2024-01-28T05:11:08.195Z,2.23
2024-01-28T05:13:36.382Z,2.24
2024-01-28T05:16:05.008Z,2.28
2024-01-28T05:18:33.150Z,2.30
2024-01-28T05:21:01.907Z,2.31
2024-01-28T05:23:29.928Z,2.32
2024-01-28T05:25:58.890Z,2.32
2024-01-28T05:28:27.090Z,2.33
2024-01-28T05:30:54.936Z,2.34
2024-01-28T05:33:23.090Z,2.34
2024-01-28T05:35:51.164Z,2.34
2024-01-28T05:38:18.982Z,2.33
2024-01-28T05:40:47.326Z,2.33
2024-01-28T05:43:15.146Z,2.34
2024-01-28T05:45:43.184Z,2.33
2024-01-28T05:48:11.230Z,2.34
2024-01-28T05:50:39.186Z,2.34
2024-01-28T05:53:07.214Z,2.30
2024-01-28T05:55:35.252Z,2.28
2024-01-28T05:58:03.116Z,2.28
2024-01-28T06:00:31.043Z,2.30
2024-01-28T06:02:59.233Z,2.30
2024-01-28T06:05:27.354Z,2.30
2024-01-28T06:07:55.565Z,2.30
2024-01-28T06:10:23.627Z,2.27
2024-01-28T06:12:51.745Z,2.23
2024-01-28T06:15:19.978Z,2.19
2024-01-28T06:17:48.232Z,2.20
2024-01-28T06:20:16.826Z,2.22
2024-01-28T06:22:44.998Z,2.25
2024-01-28T06:25:12.838Z,2.29
2024-01-28T06:27:41.207Z,2.33
2024-01-28T06:30:10.033Z,2.33
2024-01-28T06:32:38.712Z,2.31
2024-01-28T06:35:08.555Z,2.33
2024-01-28T06:37:37.128Z,2.32
2024-01-28T06:40:05.304Z,2.30
2024-01-28T06:42:33.951Z,2.33
2024-01-28T06:45:02.064Z,2.35
2024-01-28T06:47:30.299Z,2.39
2024-01-28T06:49:58.398Z,2.43
2024-01-28T06:52:26.903Z,2.49
2024-01-28T06:54:54.968Z,2.54
2024-01-28T06:57:22.955Z,2.59
2024-01-28T06:59:51.354Z,2.59
2024-01-28T07:02:19.192Z,2.58
2024-01-28T07:04:47.815Z,2.57
2024-01-28T07:07:16.658Z,2.56
2024-01-28T07:09:44.911Z,2.46
2024-01-28T07:12:12.832Z,2.47
2024-01-28T07:14:41.830Z,2.50
2024-01-28T07:17:10.382Z,2.56
2024-01-28T07:19:38.938Z,2.61
2024-01-28T07:22:07.077Z,2.70
2024-01-28T07:24:35.455Z,2.76
2024-01-28T07:27:03.727Z,2.77
2024-01-28T07:29:31.652Z,2.78
2024-01-28T07:31:59.870Z,2.82
2024-01-28T07:34:28.193Z,2.82
2024-01-28T07:36:57.834Z,2.83
2024-01-28T07:39:27.787Z,2.87
2024-01-28T07:41:56.024Z,2.90
2024-01-28T07:44:24.729Z,2.92
2024-01-28T07:46:54.088Z,2.95
2024-01-28T07:49:22.237Z,2.98
2024-01-28T07:51:50.210Z,3.02
2024-01-28T07:54:19.993Z,3.06
2024-01-28T07:56:48.169Z,3.04
2024-01-28T07:59:16.087Z,3.05
2024-01-28T08:01:44.200Z,3.08
2024-01-28T08:04:12.396Z,3.12
2024-01-28T08:06:40.637Z,3.16
2024-01-28T08:09:09.296Z,3.19
2024-01-28T08:11:37.202Z,3.21
2024-01-28T08:14:05.074Z,3.25
2024-01-28T08:16:33.026Z,3.30
2024-01-28T08:19:01.162Z,3.33
2024-01-28T08:21:29.337Z,3.36
2024-01-28T08:23:57.392Z,3.39
2024-01-28T08:26:25.624Z,3.40
2024-01-28T08:28:53.896Z,3.43
2024-01-28T08:31:21.909Z,3.48
2024-01-28T08:33:49.959Z,3.51
2024-01-28T08:36:18.556Z,3.52
2024-01-28T08:38:46.517Z,3.54
2024-01-28T08:41:14.846Z,3.54
2024-01-28T08:43:45.017Z,3.56
2024-01-28T08:46:13.177Z,3.62
2024-01-28T08:48:41.178Z,3.67
2024-01-28T08:51:09.634Z,3.74
2024-01-28T08:53:38.134Z,3.77
2024-01-28T08:56:08.996Z,3.75
2024-01-28T08:58:38.047Z,3.76
2024-01-28T09:01:07.341Z,3.75
2024-01-28T09:03:35.497Z,3.73
2024-01-28T09:06:07.000Z,3.72
2024-01-28T09:08:35.520Z,3.70
2024-01-28T09:11:03.789Z,3.70
2024-01-28T09:13:31.885Z,3.68
2024-01-28T09:16:00.288Z,3.70
2024-01-28T09:18:28.531Z,3.70
2024-01-28T09:20:56.370Z,3.72
2024-01-28T09:23:24.398Z,3.72
2024-01-28T09:25:52.377Z,3.72
2024-01-28T09:28:20.275Z,3.73
2024-01-28T09:30:49.418Z,3.73
2024-01-28T09:33:17.489Z,3.75
2024-01-28T09:35:48.091Z,3.77
2024-01-28T09:38:15.964Z,3.77
2024-01-28T09:40:43.790Z,3.80
2024-01-28T09:43:21.198Z,3.82
2024-01-28T09:45:49.863Z,3.80
2024-01-28T09:48:18.142Z,3.81
2024-01-28T09:50:46.247Z,3.83
2024-01-28T09:53:14.551Z,3.87
2024-01-28T09:55:42.685Z,3.91
2024-01-28T09:58:10.705Z,3.94
2024-01-28T10:00:38.697Z,3.97
2024-01-28T10:03:07.012Z,3.99
2024-01-28T10:05:35.040Z,4.01
2024-01-28T10:08:05.259Z,4.02
2024-01-28T10:10:37.007Z,4.03
2024-01-28T10:13:05.357Z,4.06
2024-01-28T10:15:33.851Z,4.07
2024-01-28T10:18:02.000Z,4.08
2024-01-28T10:20:31.222Z,4.11
2024-01-28T10:23:01.448Z,4.13
2024-01-28T10:25:31.119Z,4.18
2024-01-28T10:28:01.360Z,4.25
2024-01-28T10:30:29.364Z,4.34
2024-01-28T10:32:57.630Z,4.46
2024-01-28T10:35:26.791Z,4.59
2024-01-28T10:37:55.928Z,4.68
2024-01-28T10:40:38.342Z,4.74
2024-01-28T10:43:12.515Z,4.79
2024-01-28T10:45:43.312Z,4.84
2024-01-28T10:48:18.626Z,4.89
2024-01-28T10:50:47.807Z,4.94
2024-01-28T10:53:15.808Z,4.95
2024-01-28T10:55:43.877Z,4.96
2024-01-28T10:58:14.995Z,4.97
2024-01-28T11:00:43.503Z,4.98
2024-01-28T11:03:12.162Z,4.98
2024-01-28T11:05:40.874Z,5.02
2024-01-28T11:08:08.948Z,5.09
2024-01-28T11:10:38.241Z,5.13
2024-01-28T11:13:07.224Z,5.12
2024-01-28T11:15:35.184Z,5.15
2024-01-28T11:18:03.360Z,5.12
2024-01-28T11:20:35.813Z,5.18
2024-01-28T11:23:06.134Z,5.20
2024-01-28T11:25:38.394Z,5.23
2024-01-28T11:28:07.486Z,5.25
2024-01-28T11:30:36.145Z,5.29
2024-01-28T11:33:14.757Z,5.27
2024-01-28T11:35:46.686Z,5.29
2024-01-28T11:38:21.600Z,5.30
2024-01-28T11:40:56.688Z,5.33
2024-01-28T11:43:24.682Z,5.38
2024-01-28T11:45:53.437Z,5.43
2024-01-28T11:48:23.241Z,5.50
2024-01-28T11:50:51.728Z,5.58
2024-01-28T11:53:19.901Z,5.65
2024-01-28T11:55:48.071Z,5.72
2024-01-28T11:58:17.644Z,5.86
2024-01-28T12:00:45.658Z,5.99
2024-01-28T12:03:13.931Z,6.03
2024-01-28T12:05:41.807Z,5.96
2024-01-28T12:08:09.763Z,5.97
2024-01-28T12:10:37.824Z,5.94
2024-01-28T12:13:07.265Z,5.95
2024-01-28T12:15:35.601Z,5.97
2024-01-28T12:18:03.877Z,6.01
2024-01-28T12:20:32.195Z,6.02
2024-01-28T12:23:00.177Z,5.99
2024-01-28T12:25:28.318Z,5.95
2024-01-28T12:27:56.331Z,5.90
2024-01-28T12:30:24.978Z,5.83
2024-01-28T12:32:53.262Z,5.74
2024-01-28T12:35:21.341Z,5.70
2024-01-28T12:37:49.291Z,5.70
2024-01-28T12:40:17.354Z,5.69
2024-01-28T12:42:45.615Z,5.71
2024-01-28T12:45:13.748Z,5.77
2024-01-28T12:47:42.226Z,5.85
2024-01-28T12:50:10.955Z,5.92
2024-01-28T12:52:39.128Z,5.96
2024-01-28T12:55:07.977Z,5.94
2024-01-28T12:57:40.424Z,5.96
2024-01-28T13:00:10.276Z,6.00
2024-01-28T13:02:38.674Z,5.99
2024-01-28T13:05:06.938Z,6.26
2024-01-28T13:07:35.445Z,6.63
2024-01-28T13:10:03.664Z,6.91
2024-01-28T13:12:35.201Z,7.06
2024-01-28T13:15:06.666Z,7.12
2024-01-28T13:17:37.026Z,7.07
2024-01-28T13:20:06.268Z,6.94
2024-01-28T13:22:34.653Z,6.81
2024-01-28T13:25:02.869Z,6.67
2024-01-28T13:27:31.151Z,6.56
2024-01-28T13:29:59.137Z,6.45
2024-01-28T13:32:28.418Z,6.36
2024-01-28T13:34:57.330Z,6.24
2024-01-28T13:37:25.558Z,6.15
2024-01-28T13:39:53.436Z,6.06
2024-01-28T13:42:21.728Z,5.94
2024-01-28T13:44:51.504Z,5.85
2024-01-28T13:47:19.364Z,5.80
2024-01-28T13:49:47.268Z,5.75
2024-01-28T13:52:15.473Z,5.71
2024-01-28T13:54:43.770Z,5.64
2024-01-28T13:57:12.288Z,5.62
2024-01-28T13:59:40.335Z,5.60
2024-01-28T14:02:08.539Z,5.59
2024-01-28T14:04:36.905Z,5.58
2024-01-28T14:07:05.261Z,5.56
2024-01-28T14:09:33.489Z,5.56
2024-01-28T14:12:02.125Z,5.55
2024-01-28T14:14:30.507Z,5.54
2024-01-28T14:16:58.887Z,5.53
2024-01-28T14:19:26.792Z,5.54
2024-01-28T14:21:54.880Z,5.55
2024-01-28T14:24:23.538Z,5.55
2024-01-28T14:26:51.483Z,5.57
2024-01-28T14:29:19.661Z,5.53
2024-01-28T14:31:47.539Z,5.48
2024-01-28T14:34:15.564Z,5.44
2024-01-28T14:36:43.585Z,5.39
2024-01-28T14:39:11.684Z,5.35
2024-01-28T14:41:39.970Z,5.30
2024-01-28T14:44:08.070Z,5.26
2024-01-28T14:46:36.570Z,5.20
2024-01-28T14:49:05.720Z,5.16
2024-01-28T14:51:33.765Z,5.10
2024-01-28T14:54:01.998Z,5.04
2024-01-28T14:56:29.877Z,4.97
2024-01-28T14:58:58.189Z,4.93
2024-01-28T15:01:27.013Z,4.89
2024-01-28T15:03:55.166Z,4.85
2024-01-28T15:06:23.277Z,4.82
2024-01-28T15:08:51.360Z,4.79
2024-01-28T15:11:19.248Z,4.77
2024-01-28T15:13:47.334Z,4.74
2024-01-28T15:16:15.616Z,4.73
2024-01-28T15:18:44.496Z,4.69
2024-01-28T15:21:12.783Z,4.65
2024-01-28T15:23:40.707Z,4.63
2024-01-28T15:26:09.242Z,4.61
2024-01-28T15:28:39.627Z,4.59
2024-01-28T15:31:08.643Z,4.58
2024-01-28T15:33:36.876Z,4.56
2024-01-28T15:36:05.394Z,4.53
2024-01-28T15:38:33.383Z,4.51
2024-01-28T15:41:01.258Z,4.47
2024-01-28T15:43:29.133Z,4.43
2024-01-28T15:45:58.037Z,4.41
2024-01-28T15:48:26.184Z,4.41
2024-01-28T15:50:54.637Z,4.39
2024-01-28T15:53:23.029Z,4.37
2024-01-28T15:55:51.238Z,4.36
2024-01-28T15:58:19.487Z,4.34
2024-01-28T16:00:47.444Z,4.32
2024-01-28T16:03:15.474Z,4.30
2024-01-28T16:05:43.518Z,4.28
2024-01-28T16:08:14.722Z,4.26
2024-01-28T16:10:42.787Z,4.24
2024-01-28T16:13:10.730Z,4.22
2024-01-28T16:15:38.982Z,4.21
2024-01-28T16:18:07.535Z,4.20
2024-01-28T16:20:35.597Z,4.19
2024-01-28T16:23:04.074Z,4.17
2024-01-28T16:25:33.078Z,4.15
2024-01-28T16:28:02.076Z,4.13
2024-01-28T16:30:30.163Z,4.10
2024-01-28T16:32:58.152Z,4.08
2024-01-28T16:35:26.358Z,4.05
2024-01-28T16:37:54.352Z,4.02
2024-01-28T16:40:22.550Z,3.99
2024-01-28T16:42:50.714Z,3.97
2024-01-28T16:45:18.706Z,3.95
2024-01-28T16:47:47.810Z,3.94
2024-01-28T16:50:16.075Z,3.93
2024-01-28T16:52:44.376Z,3.90
2024-01-28T16:55:13.775Z,3.88
2024-01-28T16:57:41.857Z,3.85
2024-01-28T17:00:10.876Z,3.82
2024-01-28T17:02:38.983Z,3.78
2024-01-28T17:05:08.192Z,3.71
2024-01-28T17:07:36.327Z,3.69
2024-01-28T17:10:04.546Z,3.66
2024-01-28T17:12:32.801Z,3.64
2024-01-28T17:15:00.770Z,3.58
2024-01-28T17:17:28.794Z,3.51
2024-01-28T17:19:57.257Z,3.49
2024-01-28T17:22:25.653Z,3.41
2024-01-28T17:24:53.880Z,3.37
2024-01-28T17:27:22.323Z,3.33
2024-01-28T17:29:50.407Z,3.28
2024-01-28T17:32:18.283Z,3.23
2024-01-28T17:34:46.569Z,3.19
2024-01-28T17:37:14.915Z,3.15
2024-01-28T17:39:43.038Z,3.11
2024-01-28T17:42:14.971Z,3.07
2024-01-28T17:44:43.243Z,3.02
2024-01-28T17:47:11.521Z,2.96
2024-01-28T17:49:40.115Z,2.90
2024-01-28T17:52:09.521Z,2.86
2024-01-28T17:54:37.926Z,2.79
2024-01-28T17:57:06.776Z,2.69
2024-01-28T17:59:37.005Z,2.61
2024-01-28T18:02:05.272Z,2.54
2024-01-28T18:04:33.187Z,2.50
2024-01-28T18:07:01.391Z,2.46
2024-01-28T18:09:29.718Z,2.41
2024-01-28T18:11:57.561Z,2.36
2024-01-28T18:14:26.266Z,2.32
2024-01-28T18:16:54.318Z,2.26
2024-01-28T18:19:22.435Z,2.21
2024-01-28T18:21:51.006Z,2.16
2024-01-28T18:24:19.006Z,2.09
2024-01-28T18:26:47.228Z,2.03
2024-01-28T18:29:15.597Z,1.96
2024-01-28T18:31:43.595Z,1.91
2024-01-28T18:34:13.028Z,1.86
2024-01-28T18:36:41.081Z,1.79
2024-01-28T18:39:11.503Z,1.70
2024-01-28T18:41:41.996Z,1.62
2024-01-28T18:44:10.595Z,1.57
2024-01-28T18:46:38.488Z,1.55
2024-01-28T18:49:06.548Z,1.53
2024-01-28T18:51:34.963Z,1.52
2024-01-28T18:54:03.295Z,1.52
2024-01-28T18:56:31.216Z,1.50
2024-01-28T18:58:59.521Z,1.48
2024-01-28T19:01:27.520Z,1.46
2024-01-28T19:03:55.513Z,1.46
2024-01-28T19:06:25.211Z,1.45
2024-01-28T19:08:53.551Z,1.47
2024-01-28T19:11:21.482Z,1.49
2024-01-28T19:13:49.400Z,1.49
2024-01-28T19:16:17.351Z,1.47
2024-01-28T19:18:45.661Z,1.43
2024-01-28T19:21:14.083Z,1.38
2024-01-28T19:23:44.005Z,1.28
2024-01-28T19:26:12.475Z,1.25
2024-01-28T19:28:41.635Z,1.24
2024-01-28T19:31:10.669Z,1.20
2024-01-28T19:33:38.935Z,1.17
2024-01-28T19:36:08.014Z,1.13
2024-01-28T19:38:35.860Z,1.05
2024-01-28T19:41:04.206Z,0.99
2024-01-28T19:43:32.492Z,0.93
2024-01-28T19:46:00.436Z,0.85
2024-01-28T19:48:28.583Z,0.82
2024-01-28T19:50:56.865Z,0.79
2024-01-28T19:53:25.105Z,0.66
2024-01-28T19:55:53.285Z,0.51
2024-01-28T19:58:22.390Z,0.46
2024-01-28T20:00:51.013Z,0.39
2024-01-28T20:03:23.089Z,0.35
2024-01-28T20:05:51.578Z,0.32
2024-01-28T20:08:23.643Z,0.27
2024-01-28T20:10:52.662Z,0.22
2024-01-28T20:13:21.782Z,0.18
2024-01-28T20:15:50.181Z,0.17
2024-01-28T20:18:20.516Z,0.13
2024-01-28T20:20:49.597Z,0.08
2024-01-28T20:23:20.236Z,0.04
2024-01-28T20:25:54.025Z,-0.00
2024-01-28T20:28:23.283Z,-0.07
2024-01-28T20:30:52.139Z,-0.11
2024-01-28T20:33:20.578Z,-0.16
2024-01-28T20:35:50.620Z,-0.19
2024-01-28T20:38:18.788Z,-0.21
2024-01-28T20:40:47.352Z,-0.25
2024-01-28T20:43:15.547Z,-0.29
2024-01-28T20:45:43.720Z,-0.30
2024-01-28T20:48:11.658Z,-0.35
2024-01-28T20:50:39.909Z,-0.43
2024-01-28T20:53:08.036Z,-0.51
2024-01-28T20:55:35.955Z,-0.58
2024-01-28T20:58:04.630Z,-0.63
2024-01-28T21:00:32.738Z,-0.67
2024-01-28T21:03:01.076Z,-0.68
2024-01-28T21:05:29.190Z,-0.70
2024-01-28T21:07:57.239Z,-0.75
2024-01-28T21:10:26.699Z,-0.85
2024-01-28T21:12:54.913Z,-0.87
2024-01-28T21:15:23.722Z,-0.89
2024-01-28T21:17:55.231Z,-0.90
2024-01-28T21:20:23.695Z,-0.93
2024-01-28T21:22:51.747Z,-0.97
2024-01-28T21:25:19.664Z,-1.01
2024-01-28T21:27:49.536Z,-1.05
2024-01-28T21:30:17.572Z,-1.10
2024-01-28T21:32:45.481Z,-1.13
2024-01-28T21:35:13.509Z,-1.17
2024-01-28T21:37:41.497Z,-1.18
2024-01-28T21:40:09.644Z,-1.18
2024-01-28T21:42:38.825Z,-1.19
2024-01-28T21:45:06.992Z,-1.19
2024-01-28T21:47:35.242Z,-1.20
2024-01-28T21:50:03.278Z,-1.20
2024-01-28T21:52:31.341Z,-1.22
2024-01-28T21:54:59.302Z,-1.27
2024-01-28T21:57:27.339Z,-1.29
2024-01-28T21:59:55.249Z,-1.32
2024-01-28T22:02:23.309Z,-1.34
2024-01-28T22:04:51.202Z,-1.35
2024-01-28T22:07:19.642Z,-1.39
2024-01-28T22:09:47.535Z,-1.44
2024-01-28T22:12:15.556Z,-1.50
2024-01-28T22:14:43.381Z,-1.52
2024-01-28T22:17:11.453Z,-1.58
2024-01-28T22:19:39.341Z,-1.60
2024-01-28T22:22:07.517Z,-1.64
2024-01-28T22:24:37.400Z,-1.68
2024-01-28T22:27:05.994Z,-1.70
2024-01-28T22:29:33.936Z,-1.73
2024-01-28T22:32:02.032Z,-1.76
2024-01-28T22:34:30.072Z,-1.78
2024-01-28T22:36:59.053Z,-1.82
2024-01-28T22:39:27.159Z,-1.85
2024-01-28T22:41:55.170Z,-1.88
2024-01-28T22:44:23.049Z,-1.90
2024-01-28T22:46:51.089Z,-1.92
2024-01-28T22:49:19.605Z,-1.95
2024-01-28T22:51:48.315Z,-1.99
2024-01-28T22:54:16.489Z,-2.01
2024-01-28T22:56:45.943Z,-2.02
2024-01-28T22:59:14.637Z,-2.03
2024-01-28T23:01:43.622Z,-2.03
2024-01-28T23:04:11.696Z,-2.02
2024-01-28T23:06:40.143Z,-2.02
2024-01-28T23:09:08.033Z,-1.98
2024-01-28T23:11:36.205Z,-2.00
2024-01-28T23:14:04.684Z,-2.01
2024-01-28T23:16:32.690Z,-1.99
2024-01-28T23:19:00.701Z,-1.97
2024-01-28T23:21:29.067Z,-1.94
2024-01-28T23:23:57.837Z,-1.91
2024-01-28T23:26:26.290Z,-1.89
2024-01-28T23:28:54.865Z,-1.89
2024-01-28T23:31:23.976Z,-1.86
2024-01-28T23:33:52.153Z,-1.83
2024-01-28T23:36:20.448Z,-1.81
2024-01-28T23:38:48.657Z,-1.84
2024-01-28T23:41:16.884Z,-1.87
2024-01-28T23:43:44.708Z,-1.93
2024-01-28T23:46:12.943Z,-2.00
2024-01-28T23:48:41.245Z,-2.06
2024-01-28T23:51:09.283Z,-2.08
2024-01-28T23:53:37.462Z,-2.08
2024-01-28T23:56:05.723Z,-2.11
2024-01-28T23:58:33.665Z,-2.15
